createdAt,value
2022-10-12T00:01:45.657Z,91.20
2022-10-12T00:04:12.337Z,91.20
2022-10-12T00:06:39.075Z,91.20
2022-10-12T00:09:06.386Z,91.20
2022-10-12T00:11:33.088Z,91.20
2022-10-12T00:14:00.203Z,91.20
2022-10-12T00:16:31.942Z,91.10
2022-10-12T00:18:59.439Z,91.20
2022-10-12T00:21:27.395Z,91.10
2022-10-12T00:23:57.614Z,91.10
2022-10-12T00:26:24.994Z,91.20
2022-10-12T00:28:57.517Z,91.10
2022-10-12T00:31:24.803Z,91.10
2022-10-12T00:33:51.688Z,91.30
2022-10-12T00:36:22.505Z,91.00
2022-10-12T00:38:50.444Z,91.10
2022-10-12T00:41:19.875Z,91.10
2022-10-12T00:43:47.714Z,91.10
2022-10-12T00:46:24.335Z,91.10
2022-10-12T00:48:56.855Z,91.10
2022-10-12T00:51:24.169Z,91.10
2022-10-12T00:53:57.867Z,91.10
2022-10-12T00:56:28.384Z,91.30
2022-10-12T00:58:57.134Z,91.40
2022-10-12T01:01:23.965Z,91.40
2022-10-12T01:03:50.872Z,91.50
2022-10-12T01:06:18.170Z,91.60
2022-10-12T01:08:45.977Z,91.60
2022-10-12T01:11:12.805Z,91.60
2022-10-12T01:13:39.569Z,91.50
2022-10-12T01:16:20.200Z,91.30
2022-10-12T01:18:54.057Z,91.20
2022-10-12T01:21:22.588Z,91.30
2022-10-12T01:24:07.064Z,91.20
2022-10-12T01:27:05.938Z,91.20
2022-10-12T01:30:04.726Z,91.20
2022-10-12T01:33:00.660Z,91.20
2022-10-12T01:35:50.891Z,91.20
2022-10-12T01:38:53.534Z,91.10
2022-10-12T01:41:47.542Z,91.00
2022-10-12T01:44:25.287Z,91.00
2022-10-12T01:46:54.538Z,91.10
2022-10-12T01:49:31.748Z,91.20
2022-10-12T01:52:10.474Z,91.30
2022-10-12T01:55:02.460Z,91.20
2022-10-12T01:57:41.309Z,91.30
2022-10-12T02:00:11.380Z,91.50
2022-10-12T02:02:59.775Z,91.60
2022-10-12T02:05:37.393Z,91.50
2022-10-12T02:08:16.988Z,91.40
2022-10-12T02:10:58.822Z,91.20
2022-10-12T02:13:29.582Z,91.30
2022-10-12T02:15:59.500Z,91.20
2022-10-12T02:18:28.968Z,91.30
2022-10-12T02:20:59.486Z,91.40
2022-10-12T02:23:27.333Z,91.60
2022-10-12T02:25:55.089Z,91.70
2022-10-12T02:28:24.563Z,91.90
2022-10-12T02:30:59.155Z,91.90
2022-10-12T02:33:32.507Z,91.90
2022-10-12T02:36:16.429Z,91.90
2022-10-12T02:39:01.451Z,92.00
2022-10-12T02:41:33.472Z,91.80
2022-10-12T02:44:03.355Z,91.70
2022-10-12T02:46:31.774Z,91.50
2022-10-12T02:49:00.005Z,91.70
2022-10-12T02:51:29.122Z,91.80
2022-10-12T02:53:56.783Z,91.90
2022-10-12T02:56:24.020Z,92.00
2022-10-12T02:58:50.716Z,92.00
2022-10-12T03:01:17.612Z,92.00
2022-10-12T03:03:45.044Z,91.90
2022-10-12T03:06:12.246Z,91.80
2022-10-12T03:08:39.749Z,91.80
2022-10-12T03:11:08.649Z,91.70
2022-10-12T03:13:35.408Z,91.70
2022-10-12T03:16:07.274Z,91.90
2022-10-12T03:18:34.531Z,92.00
2022-10-12T03:21:01.871Z,92.20
2022-10-12T03:23:28.544Z,92.20
2022-10-12T03:25:55.253Z,92.30
2022-10-12T03:28:22.032Z,92.40
2022-10-12T03:30:48.797Z,92.40
2022-10-12T03:33:15.557Z,92.40
2022-10-12T03:35:46.144Z,92.40
2022-10-12T03:38:14.561Z,92.40
2022-10-12T03:40:41.576Z,92.30
2022-10-12T03:43:08.577Z,92.40
2022-10-12T03:45:35.776Z,92.40
2022-10-12T03:48:05.124Z,92.30
2022-10-12T03:50:34.931Z,92.40
2022-10-12T03:53:04.051Z,92.40
2022-10-12T03:55:31.059Z,92.60
2022-10-12T03:57:57.785Z,92.80
2022-10-12T04:00:25.411Z,92.70
2022-10-12T04:02:52.112Z,92.50
2022-10-12T04:05:18.769Z,92.50
2022-10-12T04:07:45.488Z,92.60
2022-10-12T04:10:12.368Z,92.60
2022-10-12T04:12:39.082Z,92.60
2022-10-12T04:15:06.363Z,92.60
2022-10-12T04:17:33.115Z,92.60
2022-10-12T04:19:59.770Z,92.70
2022-10-12T04:22:26.504Z,92.60
2022-10-12T04:24:53.220Z,92.60
2022-10-12T04:27:19.901Z,92.70
2022-10-12T04:29:46.556Z,92.60
2022-10-12T04:32:13.239Z,92.40
2022-10-12T04:34:40.304Z,92.50
2022-10-12T04:37:07.053Z,92.50
2022-10-12T04:39:33.792Z,92.50
2022-10-12T04:42:00.630Z,92.50
2022-10-12T04:44:31.953Z,93.30
2022-10-12T04:46:59.903Z,92.70
2022-10-12T04:49:26.602Z,92.70
2022-10-12T04:51:53.252Z,92.70
2022-10-12T04:54:19.932Z,92.70
2022-10-12T04:56:48.212Z,92.60
2022-10-12T04:59:15.217Z,92.50
2022-10-12T05:01:42.149Z,92.40
2022-10-12T05:04:08.984Z,92.60
2022-10-12T05:06:35.830Z,92.50
2022-10-12T05:09:02.634Z,92.50
2022-10-12T05:11:29.310Z,92.50
2022-10-12T05:13:55.990Z,92.60
2022-10-12T05:16:23.259Z,92.60
2022-10-12T05:18:49.951Z,92.60
2022-10-12T05:21:16.906Z,92.60
2022-10-12T05:23:43.549Z,92.50
2022-10-12T05:26:10.218Z,92.50
2022-10-12T05:28:40.867Z,92.50
2022-10-12T05:31:08.244Z,92.50
2022-10-12T05:33:34.936Z,92.40
2022-10-12T05:36:01.834Z,92.60
2022-10-12T05:38:28.596Z,92.50
2022-10-12T05:41:00.178Z,92.70
2022-10-12T05:43:27.778Z,92.50
2022-10-12T05:45:54.457Z,92.70
2022-10-12T05:48:21.152Z,93.00
2022-10-12T05:50:47.841Z,93.30
2022-10-12T05:53:14.577Z,93.30
2022-10-12T05:55:51.012Z,93.50
2022-10-12T05:58:17.683Z,93.70
2022-10-12T06:00:44.309Z,93.80
2022-10-12T06:03:11.147Z,93.80
2022-10-12T06:05:37.868Z,94.00
2022-10-12T06:08:04.748Z,94.10
2022-10-12T06:10:32.189Z,94.20
2022-10-12T06:12:58.929Z,94.30
2022-10-12T06:15:25.729Z,94.40
2022-10-12T06:17:52.375Z,94.30
2022-10-12T06:20:19.222Z,94.30
2022-10-12T06:22:45.866Z,94.50
2022-10-12T06:25:12.533Z,94.70
2022-10-12T06:27:39.228Z,94.80
2022-10-12T06:30:06.384Z,95.20
2022-10-12T06:32:33.502Z,95.50
2022-10-12T06:35:00.293Z,95.70
2022-10-12T06:37:48.526Z,95.90
2022-10-12T06:40:17.814Z,96.00
2022-10-12T06:42:44.698Z,96.10
2022-10-12T06:45:11.793Z,96.20
2022-10-12T06:47:38.502Z,96.30
2022-10-12T06:50:05.682Z,96.50
2022-10-12T06:52:32.365Z,96.80
2022-10-12T06:54:59.034Z,96.80
2022-10-12T06:57:25.797Z,97.10
2022-10-12T06:59:52.509Z,97.10
2022-10-12T07:02:19.318Z,97.30
2022-10-12T07:04:53.465Z,97.30
2022-10-12T07:07:20.460Z,97.30
2022-10-12T07:09:47.238Z,97.40
2022-10-12T07:12:13.902Z,97.40
2022-10-12T07:14:40.597Z,96.80
2022-10-12T07:17:07.451Z,96.80
2022-10-12T07:19:34.133Z,97.00
2022-10-12T07:22:01.322Z,97.00
2022-10-12T07:24:35.822Z,96.90
2022-10-12T07:27:08.646Z,96.80
2022-10-12T07:29:35.700Z,96.90
2022-10-12T07:32:02.626Z,97.10
2022-10-12T07:34:29.877Z,97.20
2022-10-12T07:36:59.915Z,97.00
2022-10-12T07:39:27.200Z,97.30
2022-10-12T07:41:54.284Z,97.50
2022-10-12T07:44:22.524Z,97.50
2022-10-12T07:46:49.392Z,98.10
2022-10-12T07:49:16.739Z,97.50
2022-10-12T07:51:44.676Z,97.10
2022-10-12T07:54:12.279Z,96.60
2022-10-12T07:56:41.605Z,96.60
2022-10-12T07:59:08.432Z,97.20
2022-10-12T08:01:35.328Z,97.30
2022-10-12T08:04:02.308Z,97.30
2022-10-12T08:06:31.471Z,95.30
2022-10-12T08:08:58.920Z,93.30
2022-10-12T08:11:25.823Z,93.30
2022-10-12T08:13:52.516Z,91.70
2022-10-12T08:16:21.157Z,92.00
2022-10-12T08:18:47.959Z,91.30
2022-10-12T08:21:16.670Z,89.90
2022-10-12T08:23:45.024Z,87.30
2022-10-12T08:26:13.024Z,85.70
2022-10-12T08:28:39.791Z,85.00
2022-10-12T08:31:08.619Z,85.30
2022-10-12T08:33:35.467Z,86.10
2022-10-12T08:36:03.751Z,85.10
2022-10-12T08:38:31.465Z,82.70
2022-10-12T08:41:32.089Z,79.90
2022-10-12T08:44:40.723Z,78.90
2022-10-12T08:47:16.572Z,78.30
2022-10-12T08:49:49.735Z,78.20
2022-10-12T08:52:41.565Z,78.00
2022-10-12T08:55:19.367Z,76.60
2022-10-12T08:57:49.219Z,69.70
2022-10-12T09:00:17.868Z,67.40
2022-10-12T09:03:00.586Z,67.20
2022-10-12T09:06:25.495Z,66.30
2022-10-12T09:09:05.158Z,64.80
2022-10-12T09:12:04.554Z,66.00
2022-10-12T09:14:35.300Z,65.80
2022-10-12T09:17:05.607Z,64.10
2022-10-12T09:19:36.965Z,65.00
2022-10-12T09:22:06.061Z,66.40
2022-10-12T09:24:36.433Z,65.40
2022-10-12T09:27:14.826Z,63.60
2022-10-12T09:29:44.946Z,59.80
2022-10-12T09:32:31.989Z,59.20
2022-10-12T09:34:59.598Z,58.80
2022-10-12T09:37:30.422Z,56.90
2022-10-12T09:39:57.668Z,55.00
2022-10-12T09:42:24.365Z,50.30
2022-10-12T09:45:16.577Z,50.60
2022-10-12T09:48:11.148Z,52.60
2022-10-12T09:50:40.916Z,52.30
2022-10-12T09:53:20.732Z,54.60
2022-10-12T09:55:56.560Z,52.60
2022-10-12T09:58:25.081Z,46.50
2022-10-12T10:01:19.153Z,49.30
2022-10-12T10:03:48.641Z,49.60
2022-10-12T10:06:15.596Z,49.00
2022-10-12T10:08:44.857Z,47.90
2022-10-12T10:11:32.163Z,51.40
2022-10-12T10:14:01.228Z,51.30
2022-10-12T10:16:30.542Z,49.10
2022-10-12T10:19:00.535Z,49.50
2022-10-12T10:21:29.028Z,50.50
2022-10-12T10:24:01.707Z,50.60
2022-10-12T10:26:50.592Z,49.50
2022-10-12T10:29:32.762Z,46.50
2022-10-12T10:32:30.090Z,47.20
2022-10-12T10:35:12.148Z,49.40
2022-10-12T10:37:45.755Z,47.70
2022-10-12T10:40:27.948Z,46.10
2022-10-12T10:42:57.339Z,44.70
2022-10-12T10:45:29.380Z,43.90
2022-10-12T10:48:01.460Z,42.80
2022-10-12T10:50:38.955Z,42.70
2022-10-12T10:53:13.689Z,44.60
2022-10-12T10:55:54.987Z,45.50
2022-10-12T10:58:45.544Z,42.80
2022-10-12T11:01:40.045Z,41.70
2022-10-12T11:04:17.485Z,41.10
2022-10-12T11:06:50.065Z,40.00
2022-10-12T11:09:29.782Z,41.20
2022-10-12T11:12:19.220Z,39.10
2022-10-12T11:14:53.236Z,38.70
2022-10-12T11:17:46.102Z,39.20
2022-10-12T11:20:45.492Z,38.00
2022-10-12T11:23:28.547Z,39.30
2022-10-12T11:26:27.268Z,39.60
2022-10-12T11:28:56.774Z,39.30
2022-10-12T11:31:31.245Z,39.10
2022-10-12T11:34:03.260Z,40.20
2022-10-12T11:36:32.886Z,39.70
2022-10-12T11:39:07.125Z,40.50
2022-10-12T11:42:16.867Z,38.60
2022-10-12T11:44:40.075Z,37.10
2022-10-12T11:47:30.772Z,37.90
2022-10-12T11:50:28.013Z,36.70
2022-10-12T11:52:56.756Z,38.60
2022-10-12T11:55:46.379Z,37.50
2022-10-12T11:58:31.545Z,38.70
2022-10-12T12:01:23.495Z,38.50
2022-10-12T12:04:41.816Z,40.20
2022-10-12T12:07:42.996Z,40.30
2022-10-12T12:10:27.949Z,38.60
2022-10-12T12:13:18.168Z,39.00
2022-10-12T12:15:47.802Z,39.90
2022-10-12T12:18:18.768Z,40.70
2022-10-12T12:20:46.831Z,40.30
2022-10-12T12:23:32.266Z,41.60
2022-10-12T12:26:16.234Z,42.00
2022-10-12T12:28:46.574Z,42.50
2022-10-12T12:31:26.956Z,41.80
2022-10-12T12:34:16.564Z,42.70
2022-10-12T12:36:50.166Z,44.10
2022-10-12T12:39:33.648Z,42.10
2022-10-12T12:42:06.005Z,41.80
2022-10-12T12:44:40.442Z,40.00
2022-10-12T12:47:26.484Z,42.40
2022-10-12T12:50:00.651Z,40.90
2022-10-12T12:52:33.819Z,37.70
2022-10-12T12:55:38.357Z,38.30
2022-10-12T12:58:19.442Z,39.90
2022-10-12T13:00:54.553Z,40.20
2022-10-12T13:03:45.371Z,37.80
2022-10-12T13:06:45.249Z,39.20
2022-10-12T13:09:43.586Z,38.50
2022-10-12T13:12:29.482Z,38.70
2022-10-12T13:15:15.188Z,39.60
2022-10-12T13:17:50.599Z,38.90
2022-10-12T13:20:22.176Z,39.80
2022-10-12T13:22:52.422Z,39.60
2022-10-12T13:25:31.000Z,40.30
2022-10-12T13:28:00.645Z,40.00
2022-10-12T13:30:52.989Z,38.10
2022-10-12T13:33:33.719Z,39.20
2022-10-12T13:36:23.569Z,38.70
2022-10-12T13:39:01.229Z,40.00
2022-10-12T13:41:30.453Z,38.80
2022-10-12T13:43:59.321Z,39.30
2022-10-12T13:46:49.291Z,39.70
2022-10-12T13:49:21.370Z,39.90
2022-10-12T13:51:51.602Z,39.40
2022-10-12T13:54:32.442Z,39.00
2022-10-12T13:57:02.759Z,39.20
2022-10-12T13:59:36.723Z,39.30
2022-10-12T14:02:17.255Z,38.70
2022-10-12T14:04:44.459Z,38.70
2022-10-12T14:07:21.849Z,40.20
2022-10-12T14:09:54.534Z,38.80
2022-10-12T14:12:25.283Z,37.20
2022-10-12T14:14:53.514Z,37.90
2022-10-12T14:17:21.279Z,39.40
2022-10-12T14:19:52.958Z,37.80
2022-10-12T14:22:29.359Z,37.60
2022-10-12T14:25:08.210Z,38.10
2022-10-12T14:27:39.534Z,37.20
2022-10-12T14:30:23.009Z,38.60
2022-10-12T14:32:50.883Z,38.60
2022-10-12T14:35:26.678Z,38.80
2022-10-12T14:37:55.105Z,39.30
2022-10-12T14:40:24.953Z,39.10
2022-10-12T14:43:04.121Z,38.60
2022-10-12T14:45:32.535Z,39.30
2022-10-12T14:48:01.514Z,39.30
2022-10-12T14:50:31.180Z,40.70
2022-10-12T14:53:01.682Z,41.40
2022-10-12T14:55:32.479Z,40.80
2022-10-12T14:58:00.107Z,40.40
2022-10-12T15:00:35.169Z,41.00
2022-10-12T15:03:02.735Z,41.30
2022-10-12T15:05:34.253Z,41.10
2022-10-12T15:08:07.185Z,42.10
2022-10-12T15:10:37.620Z,42.80
2022-10-12T15:13:04.551Z,43.40
2022-10-12T15:15:46.794Z,43.40
2022-10-12T15:18:13.643Z,44.40
2022-10-12T15:20:44.182Z,45.30
2022-10-12T15:23:14.418Z,45.70
2022-10-12T15:25:55.179Z,45.40
2022-10-12T15:28:22.869Z,45.90
2022-10-12T15:33:37.308Z,46.40
2022-10-12T15:36:04.171Z,47.40
2022-10-12T15:38:30.852Z,48.10
2022-10-12T15:40:58.332Z,48.90
2022-10-12T15:43:26.414Z,49.10
2022-10-12T15:45:53.768Z,49.50
2022-10-12T15:48:20.580Z,49.80
2022-10-12T15:50:49.303Z,50.10
2022-10-12T15:53:18.439Z,50.60
2022-10-12T15:55:45.758Z,50.90
2022-10-12T15:58:13.206Z,51.80
2022-10-12T16:00:40.448Z,51.80
2022-10-12T16:03:07.203Z,53.20
2022-10-12T16:05:36.731Z,54.40
2022-10-12T16:08:05.421Z,55.40
2022-10-12T16:10:37.057Z,56.40
2022-10-12T16:13:05.684Z,57.50
2022-10-12T16:15:34.984Z,58.00
2022-10-12T16:18:03.378Z,58.40
2022-10-12T16:20:31.601Z,59.50
2022-10-12T16:22:59.205Z,59.80
2022-10-12T16:25:26.617Z,60.30
2022-10-12T16:27:55.539Z,60.50
2022-10-12T16:30:23.443Z,61.10
2022-10-12T16:32:50.132Z,62.80
2022-10-12T16:35:17.537Z,63.20
2022-10-12T16:37:44.206Z,64.00
2022-10-12T16:40:14.763Z,64.60
2022-10-12T16:42:41.476Z,64.80
2022-10-12T16:45:08.608Z,65.30
2022-10-12T16:47:38.923Z,65.70
2022-10-12T16:50:09.737Z,67.40
2022-10-12T16:52:36.408Z,69.20
2022-10-12T16:55:03.368Z,69.80
2022-10-12T16:57:30.146Z,71.50
2022-10-12T16:59:58.859Z,71.20
2022-10-12T17:02:27.444Z,71.60
2022-10-12T17:04:54.258Z,72.10
2022-10-12T17:07:20.953Z,72.70
2022-10-12T17:09:47.867Z,73.10
2022-10-12T17:12:14.935Z,73.50
2022-10-12T17:14:41.753Z,73.60
2022-10-12T17:17:08.405Z,74.00
2022-10-12T17:19:40.736Z,74.30
2022-10-12T17:22:08.487Z,74.60
2022-10-12T17:24:36.990Z,75.20
2022-10-12T17:27:05.599Z,75.30
2022-10-12T17:29:36.553Z,75.80
2022-10-12T17:32:04.166Z,76.00
2022-10-12T17:34:33.467Z,76.70
2022-10-12T17:37:02.444Z,76.90
2022-10-12T17:39:31.954Z,77.60
2022-10-12T17:41:58.754Z,77.70
2022-10-12T17:44:25.683Z,78.20
2022-10-12T17:46:52.643Z,78.60
2022-10-12T17:49:24.501Z,78.70
2022-10-12T17:51:51.859Z,79.10
2022-10-12T17:54:19.759Z,79.80
2022-10-12T17:56:46.569Z,80.10
2022-10-12T17:59:14.920Z,80.50
2022-10-12T18:01:42.017Z,80.60
2022-10-12T18:04:10.865Z,80.60
2022-10-12T18:06:37.667Z,80.40
2022-10-12T18:09:06.085Z,80.40
2022-10-12T18:11:33.557Z,80.80
2022-10-12T18:14:00.258Z,81.10
2022-10-12T18:16:29.803Z,81.40
2022-10-12T18:18:59.161Z,81.60
2022-10-12T18:21:27.912Z,81.70
2022-10-12T18:23:54.919Z,82.20
2022-10-12T18:26:22.326Z,82.60
2022-10-12T18:28:51.147Z,82.70
2022-10-12T18:31:19.939Z,82.70
2022-10-12T18:33:46.792Z,83.20
2022-10-12T18:36:15.025Z,83.50
2022-10-12T18:38:41.795Z,83.60
2022-10-12T18:41:10.975Z,84.40
2022-10-12T18:43:38.134Z,84.50
2022-10-12T18:46:08.384Z,84.50
2022-10-12T18:48:35.315Z,85.30
2022-10-12T18:51:16.415Z,86.00
2022-10-12T18:53:43.107Z,86.30
2022-10-12T18:56:11.021Z,86.90
2022-10-12T18:58:40.413Z,87.20
2022-10-12T19:01:10.652Z,87.80
2022-10-12T19:03:37.896Z,87.70
2022-10-12T19:06:10.961Z,87.70
2022-10-12T19:08:37.730Z,87.70
2022-10-12T19:11:06.600Z,87.70
2022-10-12T19:13:33.351Z,87.70
2022-10-12T19:16:08.081Z,88.20
2022-10-12T19:18:35.332Z,88.40
2022-10-12T19:21:07.235Z,88.70
2022-10-12T19:23:34.026Z,88.80
2022-10-12T19:26:12.859Z,88.80
2022-10-12T19:28:39.697Z,88.60
2022-10-12T19:31:18.643Z,88.60
2022-10-12T19:33:45.683Z,88.60
2022-10-12T19:36:13.961Z,88.90
2022-10-12T19:38:41.117Z,89.10
2022-10-12T19:41:08.256Z,89.10
2022-10-12T19:43:36.065Z,89.20
2022-10-12T19:46:10.716Z,89.30
2022-10-12T19:48:38.349Z,89.60
2022-10-12T19:51:08.071Z,90.50
2022-10-12T19:53:35.079Z,91.40
2022-10-12T19:56:04.391Z,91.10
2022-10-12T19:58:31.306Z,91.10
2022-10-12T20:01:11.164Z,91.10
2022-10-12T20:03:38.307Z,91.40
2022-10-12T20:06:08.964Z,91.30
2022-10-12T20:08:37.341Z,91.70
2022-10-12T20:11:04.317Z,92.50
2022-10-12T20:13:31.302Z,93.30
2022-10-12T20:15:58.382Z,93.40
2022-10-12T20:18:26.200Z,93.10
2022-10-12T20:20:53.642Z,93.40
2022-10-12T20:23:21.140Z,94.10
2022-10-12T20:25:51.106Z,93.70
2022-10-12T20:28:19.485Z,93.60
2022-10-12T20:30:47.059Z,93.50
2022-10-12T20:33:14.582Z,93.70
2022-10-12T20:35:48.789Z,93.80
2022-10-12T20:38:17.171Z,94.10
2022-10-12T20:40:44.057Z,94.80
2022-10-12T20:43:10.684Z,94.70
2022-10-12T20:45:37.635Z,94.50
2022-10-12T20:48:04.399Z,94.10
2022-10-12T20:50:31.678Z,93.90
2022-10-12T20:52:58.504Z,93.60
2022-10-12T20:55:25.820Z,93.50
2022-10-12T20:57:52.496Z,93.40
2022-10-12T21:00:19.287Z,93.40
2022-10-12T21:02:45.999Z,93.30
2022-10-12T21:05:12.665Z,93.20
2022-10-12T21:07:39.319Z,93.10
2022-10-12T21:10:06.688Z,93.10
2022-10-12T21:12:33.330Z,93.70
2022-10-12T21:15:00.066Z,93.70
2022-10-12T21:17:26.716Z,93.60
2022-10-12T21:19:53.697Z,93.60
2022-10-12T21:22:20.775Z,93.40
2022-10-12T21:24:47.495Z,93.40
2022-10-12T21:27:14.215Z,93.40
2022-10-12T21:29:40.917Z,93.20
2022-10-12T21:32:07.580Z,93.10
2022-10-12T21:34:34.276Z,93.30
2022-10-12T21:37:00.923Z,93.30
2022-10-12T21:39:27.628Z,93.10
2022-10-12T21:41:54.295Z,92.80
2022-10-12T21:44:20.937Z,92.70
2022-10-12T21:46:47.690Z,92.70
2022-10-12T21:49:14.380Z,92.60
2022-10-12T21:51:41.084Z,92.60
2022-10-12T21:54:07.907Z,92.60
2022-10-12T21:56:35.884Z,92.70
2022-10-12T21:59:04.216Z,93.00
2022-10-12T22:01:35.436Z,93.20
2022-10-12T22:04:05.382Z,93.20
2022-10-12T22:06:32.335Z,93.40
2022-10-12T22:09:02.352Z,93.50
2022-10-12T22:11:31.498Z,93.40
2022-10-12T22:14:05.191Z,93.70
2022-10-12T22:16:32.205Z,93.50
2022-10-12T22:19:00.516Z,93.40
2022-10-12T22:21:27.599Z,93.60
2022-10-12T22:23:54.292Z,93.80
2022-10-12T22:26:22.715Z,93.90
2022-10-12T22:28:49.780Z,93.80
2022-10-12T22:31:18.326Z,94.10
2022-10-12T22:33:44.994Z,94.20
2022-10-12T22:36:12.993Z,94.20
2022-10-12T22:38:39.846Z,94.30
2022-10-12T22:41:17.491Z,94.20
2022-10-12T22:43:44.262Z,94.00
2022-10-12T22:46:11.604Z,93.90
2022-10-12T22:48:38.759Z,94.00
2022-10-12T22:51:06.963Z,94.00
2022-10-12T22:53:34.725Z,93.90
2022-10-12T22:56:04.508Z,93.90
2022-10-12T22:58:31.767Z,93.70
2022-10-12T23:01:03.965Z,93.70
2022-10-12T23:03:31.767Z,93.80
2022-10-12T23:05:58.826Z,93.90
2022-10-12T23:08:26.140Z,94.10
2022-10-12T23:10:53.172Z,94.20
2022-10-12T23:13:19.820Z,94.80
2022-10-12T23:15:46.487Z,95.30
2022-10-12T23:18:13.129Z,95.50
2022-10-12T23:20:40.792Z,95.50
2022-10-12T23:23:08.349Z,95.60
2022-10-12T23:25:35.035Z,95.80
2022-10-12T23:28:01.712Z,95.70
2022-10-12T23:30:28.396Z,95.80
2022-10-12T23:32:55.041Z,95.80
2022-10-12T23:35:21.634Z,95.80
2022-10-12T23:37:48.299Z,95.70
2022-10-12T23:40:15.024Z,95.70
2022-10-12T23:42:41.687Z,95.80
2022-10-12T23:45:08.549Z,95.70
2022-10-12T23:47:35.296Z,95.80
2022-10-12T23:50:01.944Z,95.80
2022-10-12T23:52:29.049Z,95.70
2022-10-12T23:54:55.714Z,95.70
2022-10-12T23:57:45.722Z,95.70
